sensor_id;sensor_type;location;lat;lon;timestamp;pressure;altitude;pressure_sealevel;temperature;humidity
50852;BME280;43953;45.508;-122.806;2024-03-02T00:00:00;98984.66;;;24.23;32.39
50852;BME280;43953;45.508;-122.806;2024-03-02T00:00:32;98979.16;;;24.23;32.48
50852;BME280;43953;45.508;-122.806;2024-03-02T00:01:04;98985.44;;;24.24;32.30
50852;BME280;43953;45.508;-122.806;2024-03-02T00:01:36;98978.34;;;24.23;32.42
50852;BME280;43953;45.508;-122.806;2024-03-02T00:02:08;98981.09;;;24.23;32.44
50852;BME280;43953;45.508;-122.806;2024-03-02T00:02:47;98982.22;;;24.22;32.38
50852;BME280;43953;45.508;-122.806;2024-03-02T00:03:19;98978.34;;;24.23;32.63
50852;BME280;43953;45.508;-122.806;2024-03-02T00:03:51;98972.03;;;24.22;32.49
50852;BME280;43953;45.508;-122.806;2024-03-02T00:04:23;98975.59;;;24.23;32.39
50852;BME280;43953;45.508;-122.806;2024-03-02T00:04:55;98975.59;;;24.23;32.50
50852;BME280;43953;45.508;-122.806;2024-03-02T00:05:26;98969.16;;;24.19;32.45
50852;BME280;43953;45.508;-122.806;2024-03-02T00:05:58;98971.22;;;24.22;32.43
50852;BME280;43953;45.508;-122.806;2024-03-02T00:06:30;98964.13;;;24.21;32.52
50852;BME280;43953;45.508;-122.806;2024-03-02T00:07:02;98964.94;;;24.21;32.52
50852;BME280;43953;45.508;-122.806;2024-03-02T00:07:34;98954.97;;;24.17;32.60
50852;BME280;43953;45.508;-122.806;2024-03-02T00:08:07;98958.63;;;24.21;32.59
50852;BME280;43953;45.508;-122.806;2024-03-02T00:08:39;98964.13;;;24.21;32.48
50852;BME280;43953;45.508;-122.806;2024-03-02T00:09:11;98957.47;;;24.22;32.46
50852;BME280;43953;45.508;-122.806;2024-03-02T00:09:44;98964.13;;;24.21;32.41
50852;BME280;43953;45.508;-122.806;2024-03-02T00:10:18;98958.63;;;24.21;32.63
50852;BME280;43953;45.508;-122.806;2024-03-02T00:10:51;98924.78;;;23.96;32.39
50852;BME280;43953;45.508;-122.806;2024-03-02T00:11:23;98958.63;;;24.21;32.49
50852;BME280;43953;45.508;-122.806;2024-03-02T00:11:55;98958.63;;;24.21;32.63
50852;BME280;43953;45.508;-122.806;2024-03-02T00:12:27;98955.88;;;24.21;32.43
50852;BME280;43953;45.508;-122.806;2024-03-02T00:12:58;98958.97;;;24.19;32.46
50852;BME280;43953;45.508;-122.806;2024-03-02T00:13:30;98961.72;;;24.19;32.34
50852;BME280;43953;45.508;-122.806;2024-03-02T00:14:03;98961.72;;;24.19;32.51
50852;BME280;43953;45.508;-122.806;2024-03-02T00:14:35;98957.38;;;24.18;32.52
50852;BME280;43953;45.508;-122.806;2024-03-02T00:15:41;98957.38;;;24.18;32.64
50852;BME280;43953;45.508;-122.806;2024-03-02T00:16:14;98951.88;;;24.18;32.36
50852;BME280;43953;45.508;-122.806;2024-03-02T00:16:47;98954.63;;;24.18;32.48
50852;BME280;43953;45.508;-122.806;2024-03-02T00:17:24;98950.72;;;24.19;32.50
50852;BME280;43953;45.508;-122.806;2024-03-02T00:17:59;98946.38;;;24.18;32.44
50852;BME280;43953;45.508;-122.806;2024-03-02T00:18:32;98944.41;;;24.19;32.48
50852;BME280;43953;45.508;-122.806;2024-03-02T00:19:08;98939.72;;;24.19;32.63
50852;BME280;43953;45.508;-122.806;2024-03-02T00:19:40;98939.72;;;24.19;32.27
50852;BME280;43953;45.508;-122.806;2024-03-02T00:20:17;98935.03;;;24.20;32.51
50852;BME280;43953;45.508;-122.806;2024-03-02T00:20:53;98931.13;;;24.21;32.60
50852;BME280;43953;45.508;-122.806;2024-03-02T00:21:27;98925.63;;;24.21;32.74
50852;BME280;43953;45.508;-122.806;2024-03-02T00:22:01;98927.22;;;24.22;32.70
50852;BME280;43953;45.508;-122.806;2024-03-02T00:22:35;98920.59;;;24.23;32.71
50852;BME280;43953;45.508;-122.806;2024-03-02T00:23:09;98923.34;;;24.23;32.69
50852;BME280;43953;45.508;-122.806;2024-03-02T00:23:41;98909.81;;;24.18;32.83
50852;BME280;43953;45.508;-122.806;2024-03-02T00:24:34;98913.63;;;24.25;32.68
50852;BME280;43953;45.508;-122.806;2024-03-02T00:25:06;98909.34;;;24.28;32.59
50852;BME280;43953;45.508;-122.806;2024-03-02T00:25:58;98905.47;;;24.29;32.60
50852;BME280;43953;45.508;-122.806;2024-03-02T00:26:31;98896.84;;;24.30;32.62
50852;BME280;43953;45.508;-122.806;2024-03-02T00:27:04;98899.28;;;24.32;32.67
50852;BME280;43953;45.508;-122.806;2024-03-02T00:27:37;98891.72;;;24.29;32.69
50852;BME280;43953;45.508;-122.806;2024-03-02T00:28:21;98887.47;;;24.32;32.73
50852;BME280;43953;45.508;-122.806;2024-03-02T00:28:55;98893.78;;;24.32;32.45
50852;BME280;43953;45.508;-122.806;2024-03-02T00:29:30;98880.03;;;24.32;32.52
50852;BME280;43953;45.508;-122.806;2024-03-02T00:30:13;98880.03;;;24.32;32.44
50852;BME280;43953;45.508;-122.806;2024-03-02T00:30:58;98874.53;;;24.32;32.61
50852;BME280;43953;45.508;-122.806;2024-03-02T00:31:32;98877.28;;;24.32;32.68
50852;BME280;43953;45.508;-122.806;2024-03-02T00:32:03;98869.81;;;24.33;32.61
50852;BME280;43953;45.508;-122.806;2024-03-02T00:32:39;98860.78;;;24.32;32.64
50852;BME280;43953;45.508;-122.806;2024-03-02T00:33:14;98859.97;;;24.32;32.57
50852;BME280;43953;45.508;-122.806;2024-03-02T00:33:47;98856.41;;;24.31;32.40
50852;BME280;43953;45.508;-122.806;2024-03-02T00:34:19;98853.66;;;24.31;32.55
50852;BME280;43953;45.508;-122.806;2024-03-02T00:34:51;98853.66;;;24.31;32.59
50852;BME280;43953;45.508;-122.806;2024-03-02T00:35:23;98854.81;;;24.30;32.54
50852;BME280;43953;45.508;-122.806;2024-03-02T00:35:55;98848.84;;;24.28;32.84
50852;BME280;43953;45.508;-122.806;2024-03-02T00:36:27;98850.47;;;24.29;32.60
50852;BME280;43953;45.508;-122.806;2024-03-02T00:36:59;98847.72;;;24.29;32.51
50852;BME280;43953;45.508;-122.806;2024-03-02T00:37:31;98850.47;;;24.29;32.51
50852;BME280;43953;45.508;-122.806;2024-03-02T00:38:05;98844.97;;;24.29;32.85
50852;BME280;43953;45.508;-122.806;2024-03-02T00:38:55;98837.84;;;24.28;32.55
50852;BME280;43953;45.508;-122.806;2024-03-02T00:39:27;98835.09;;;24.28;32.67
50852;BME280;43953;45.508;-122.806;2024-03-02T00:40:00;98832.34;;;24.28;32.56
50852;BME280;43953;45.508;-122.806;2024-03-02T00:40:32;98826.84;;;24.28;32.56
50852;BME280;43953;45.508;-122.806;2024-03-02T00:41:05;98833.97;;;24.29;32.72
50852;BME280;43953;45.508;-122.806;2024-03-02T00:41:41;98821.34;;;24.28;32.62
50852;BME280;43953;45.508;-122.806;2024-03-02T00:42:15;98822.97;;;24.29;32.81
50852;BME280;43953;45.508;-122.806;2024-03-02T00:42:47;98815.84;;;24.28;32.90
50852;BME280;43953;45.508;-122.806;2024-03-02T00:44:03;98815.84;;;24.28;32.76
50852;BME280;43953;45.508;-122.806;2024-03-02T00:44:36;98815.03;;;24.27;32.70
50852;BME280;43953;45.508;-122.806;2024-03-02T00:45:08;98813.91;;;24.28;32.76
50852;BME280;43953;45.508;-122.806;2024-03-02T00:45:40;98807.59;;;24.28;32.60
50852;BME280;43953;45.508;-122.806;2024-03-02T00:46:13;98807.59;;;24.28;32.87
50852;BME280;43953;45.508;-122.806;2024-03-02T00:46:46;98800.50;;;24.27;32.69
50852;BME280;43953;45.508;-122.806;2024-03-02T00:47:18;98795.78;;;24.27;32.71
50852;BME280;43953;45.508;-122.806;2024-03-02T00:47:51;98798.91;;;24.26;32.72
50852;BME280;43953;45.508;-122.806;2024-03-02T00:48:22;98796.16;;;24.26;32.82
50852;BME280;43953;45.508;-122.806;2024-03-02T00:48:56;98797.75;;;24.27;32.76
50852;BME280;43953;45.508;-122.806;2024-03-02T00:49:28;98804.41;;;24.26;32.89
50852;BME280;43953;45.508;-122.806;2024-03-02T00:50:00;98805.22;;;24.26;32.97
50852;BME280;43953;45.508;-122.806;2024-03-02T00:50:32;98804.41;;;24.26;32.99
50852;BME280;43953;45.508;-122.806;2024-03-02T00:51:04;98802.47;;;24.26;32.67
50852;BME280;43953;45.508;-122.806;2024-03-02T00:51:36;98809.91;;;24.26;32.71
50852;BME280;43953;45.508;-122.806;2024-03-02T00:52:08;98802.09;;;24.28;32.76
50852;BME280;43953;45.508;-122.806;2024-03-02T00:52:40;98799.34;;;24.28;32.70
50852;BME280;43953;45.508;-122.806;2024-03-02T00:53:12;98795.47;;;24.29;32.81
50852;BME280;43953;45.508;-122.806;2024-03-02T00:53:44;98800.28;;;24.32;32.79
50852;BME280;43953;45.508;-122.806;2024-03-02T00:54:23;98796.81;;;24.35;32.89
50852;BME280;43953;45.508;-122.806;2024-03-02T00:54:57;98793.38;;;24.38;32.85
50852;BME280;43953;45.508;-122.806;2024-03-02T00:55:29;98786.06;;;24.42;33.00
50852;BME280;43953;45.508;-122.806;2024-03-02T00:56:01;98783.75;;;24.44;32.91
50852;BME280;43953;45.508;-122.806;2024-03-02T00:56:33;98787.78;;;24.47;32.74
50852;BME280;43953;45.508;-122.806;2024-03-02T00:57:06;98783.97;;;24.51;32.73
50852;BME280;43953;45.508;-122.806;2024-03-02T00:57:42;98783.63;;;24.53;32.85
50852;BME280;43953;45.508;-122.806;2024-03-02T00:58:15;98787.63;;;24.56;32.64
50852;BME280;43953;45.508;-122.806;2024-03-02T00:58:47;98785.31;;;24.58;32.54
50852;BME280;43953;45.508;-122.806;2024-03-02T00:59:18;98788.53;;;24.60;32.70
50852;BME280;43953;45.508;-122.806;2024-03-02T00:59:50;98772.81;;;24.60;32.37
50852;BME280;43953;45.508;-122.806;2024-03-02T01:00:22;98778.31;;;24.60;32.58
50852;BME280;43953;45.508;-122.806;2024-03-02T01:00:54;98769.25;;;24.60;32.38
50852;BME280;43953;45.508;-122.806;2024-03-02T01:01:25;98768.09;;;24.61;32.50
50852;BME280;43953;45.508;-122.806;2024-03-02T01:01:57;98768.09;;;24.61;32.52
50852;BME280;43953;45.508;-122.806;2024-03-02T01:02:29;98763.75;;;24.60;32.53
50852;BME280;43953;45.508;-122.806;2024-03-02T01:03:00;98753.13;;;24.58;32.64
50852;BME280;43953;45.508;-122.806;2024-03-02T01:03:33;98752.28;;;24.58;32.46
50852;BME280;43953;45.508;-122.806;2024-03-02T01:04:05;98746.38;;;24.56;32.34
50852;BME280;43953;45.508;-122.806;2024-03-02T01:04:37;98744.75;;;24.55;32.64
50852;BME280;43953;45.508;-122.806;2024-03-02T01:05:08;98741.19;;;24.54;32.66
50852;BME280;43953;45.508;-122.806;2024-03-02T01:05:43;98744.31;;;24.52;32.52
50852;BME280;43953;45.508;-122.806;2024-03-02T01:06:16;98738.00;;;24.52;32.63
50852;BME280;43953;45.508;-122.806;2024-03-02T01:06:47;98738.34;;;24.50;32.57
50852;BME280;43953;45.508;-122.806;2024-03-02T01:07:19;98738.69;;;24.49;32.73
50852;BME280;43953;45.508;-122.806;2024-03-02T01:07:51;98729.63;;;24.48;32.61
50852;BME280;43953;45.508;-122.806;2024-03-02T01:08:24;98719.00;;;24.47;32.52
50852;BME280;43953;45.508;-122.806;2024-03-02T01:08:56;98719.34;;;24.45;32.51
50852;BME280;43953;45.508;-122.806;2024-03-02T01:09:28;98719.34;;;24.45;32.55
50852;BME280;43953;45.508;-122.806;2024-03-02T01:10:00;98715.00;;;24.44;32.79
50852;BME280;43953;45.508;-122.806;2024-03-02T01:10:31;98715.00;;;24.44;32.45
50852;BME280;43953;45.508;-122.806;2024-03-02T01:11:04;98710.66;;;24.43;32.63
50852;BME280;43953;45.508;-122.806;2024-03-02T01:11:36;98706.28;;;24.42;32.79
50852;BME280;43953;45.508;-122.806;2024-03-02T01:12:08;98706.28;;;24.42;32.62
50852;BME280;43953;45.508;-122.806;2024-03-02T01:12:39;98699.16;;;24.41;32.67
50852;BME280;43953;45.508;-122.806;2024-03-02T01:13:11;98693.91;;;24.36;32.41
50852;BME280;43953;45.508;-122.806;2024-03-02T01:13:43;98697.56;;;24.40;32.60
50852;BME280;43953;45.508;-122.806;2024-03-02T01:14:15;98694.81;;;24.40;32.54
50852;BME280;43953;45.508;-122.806;2024-03-02T01:14:47;98694.00;;;24.40;32.65
50852;BME280;43953;45.508;-122.806;2024-03-02T01:15:19;98687.69;;;24.39;32.58
50852;BME280;43953;45.508;-122.806;2024-03-02T01:15:51;98688.88;;;24.38;32.66
50852;BME280;43953;45.508;-122.806;2024-03-02T01:16:22;98689.66;;;24.39;32.57
50852;BME280;43953;45.508;-122.806;2024-03-02T01:16:54;98688.88;;;24.38;32.69
50852;BME280;43953;45.508;-122.806;2024-03-02T01:17:26;98679.81;;;24.38;32.63
50852;BME280;43953;45.508;-122.806;2024-03-02T01:17:58;98669.59;;;24.38;32.70
50852;BME280;43953;45.508;-122.806;2024-03-02T01:18:29;98673.50;;;24.37;32.80
50852;BME280;43953;45.508;-122.806;2024-03-02T01:19:02;98669.16;;;24.36;32.77
50852;BME280;43953;45.508;-122.806;2024-03-02T01:19:33;98673.50;;;24.37;32.49
50852;BME280;43953;45.508;-122.806;2024-03-02T01:20:08;98674.66;;;24.36;32.67
50852;BME280;43953;45.508;-122.806;2024-03-02T01:20:40;98666.75;;;24.35;32.62
50852;BME280;43953;45.508;-122.806;2024-03-02T01:21:12;98669.16;;;24.36;32.72
50852;BME280;43953;45.508;-122.806;2024-03-02T01:21:44;98669.16;;;24.36;32.59
50852;BME280;43953;45.508;-122.806;2024-03-02T01:22:16;98669.16;;;24.36;32.72
50852;BME280;43953;45.508;-122.806;2024-03-02T01:22:49;98668.69;;;24.34;32.63
50852;BME280;43953;45.508;-122.806;2024-03-02T01:23:24;98660.44;;;24.34;32.54
50852;BME280;43953;45.508;-122.806;2024-03-02T01:23:56;98661.59;;;24.33;32.61
50852;BME280;43953;45.508;-122.806;2024-03-02T01:24:27;98663.19;;;24.34;32.70
50852;BME280;43953;45.508;-122.806;2024-03-02T01:24:59;98665.94;;;24.34;32.85
50852;BME280;43953;45.508;-122.806;2024-03-02T01:25:31;98660.09;;;24.36;32.69
50852;BME280;43953;45.508;-122.806;2024-03-02T01:26:03;98658.59;;;24.38;32.75
50852;BME280;43953;45.508;-122.806;2024-03-02T01:26:34;98660.66;;;24.41;32.84
50852;BME280;43953;45.508;-122.806;2024-03-02T01:27:06;98659.53;;;24.42;32.76
50852;BME280;43953;45.508;-122.806;2024-03-02T01:27:39;98655.28;;;24.45;32.89
50852;BME280;43953;45.508;-122.806;2024-03-02T01:28:10;98652.97;;;24.47;32.86
50852;BME280;43953;45.508;-122.806;2024-03-02T01:28:42;98658.56;;;24.50;32.75
50852;BME280;43953;45.508;-122.806;2024-03-02T01:29:14;98662.22;;;24.55;32.63
50852;BME280;43953;45.508;-122.806;2024-03-02T01:29:46;98656.81;;;24.58;32.68
50852;BME280;43953;45.508;-122.806;2024-03-02T01:30:17;98656.47;;;24.60;32.71
50852;BME280;43953;45.508;-122.806;2024-03-02T01:30:49;98658.50;;;24.63;32.86
50852;BME280;43953;45.508;-122.806;2024-03-02T01:31:21;98655.03;;;24.66;32.67
50852;BME280;43953;45.508;-122.806;2024-03-02T01:31:56;98651.84;;;24.64;32.66
50852;BME280;43953;45.508;-122.806;2024-03-02T01:32:28;98662.59;;;24.69;32.36
50852;BME280;43953;45.508;-122.806;2024-03-02T01:33:00;98651.59;;;24.69;32.47
50852;BME280;43953;45.508;-122.806;2024-03-02T01:33:33;98661.47;;;24.70;32.48
50852;BME280;43953;45.508;-122.806;2024-03-02T01:34:05;98657.88;;;24.69;32.46
50852;BME280;43953;45.508;-122.806;2024-03-02T01:34:36;98644.13;;;24.69;32.50
50852;BME280;43953;45.508;-122.806;2024-03-02T01:35:08;98648.84;;;24.69;32.47
50852;BME280;43953;45.508;-122.806;2024-03-02T01:35:40;98657.47;;;24.67;32.23
50852;BME280;43953;45.508;-122.806;2024-03-02T01:36:12;98647.59;;;24.66;32.44
50852;BME280;43953;45.508;-122.806;2024-03-02T01:36:43;98651.50;;;24.65;32.35
50852;BME280;43953;45.508;-122.806;2024-03-02T01:37:15;98647.94;;;24.65;32.47
50852;BME280;43953;45.508;-122.806;2024-03-02T01:37:47;98647.50;;;24.63;32.55
50852;BME280;43953;45.508;-122.806;2024-03-02T01:38:19;98641.53;;;24.61;32.51
50852;BME280;43953;45.508;-122.806;2024-03-02T01:38:51;98643.16;;;24.62;32.54
50852;BME280;43953;45.508;-122.806;2024-03-02T01:39:23;98639.94;;;24.60;32.53
50852;BME280;43953;45.508;-122.806;2024-03-02T01:39:54;98636.75;;;24.58;32.46
50852;BME280;43953;45.508;-122.806;2024-03-02T01:40:26;98628.06;;;24.56;32.60
50852;BME280;43953;45.508;-122.806;2024-03-02T01:40:59;98631.25;;;24.58;32.45
50852;BME280;43953;45.508;-122.806;2024-03-02T01:41:31;98628.06;;;24.56;32.55
50852;BME280;43953;45.508;-122.806;2024-03-02T01:42:03;98626.44;;;24.55;32.56
50852;BME280;43953;45.508;-122.806;2024-03-02T01:42:38;98630.34;;;24.54;32.33
50852;BME280;43953;45.508;-122.806;2024-03-02T01:43:10;98624.84;;;24.54;32.51
50852;BME280;43953;45.508;-122.806;2024-03-02T01:43:42;98621.66;;;24.51;32.55
50852;BME280;43953;45.508;-122.806;2024-03-02T01:44:14;98626.34;;;24.51;32.56
50852;BME280;43953;45.508;-122.806;2024-03-02T01:44:46;98622.81;;;24.50;32.54
50852;BME280;43953;45.508;-122.806;2024-03-02T01:45:18;98631.06;;;24.50;32.64
50852;BME280;43953;45.508;-122.806;2024-03-02T01:45:50;98622.34;;;24.48;32.63
50852;BME280;43953;45.508;-122.806;2024-03-02T01:46:21;98629.47;;;24.49;32.58
50852;BME280;43953;45.508;-122.806;2024-03-02T01:46:53;98620.78;;;24.47;32.69
50852;BME280;43953;45.508;-122.806;2024-03-02T01:47:25;98631.78;;;24.47;32.58
50852;BME280;43953;45.508;-122.806;2024-03-02T01:47:56;98632.94;;;24.46;32.61
50852;BME280;43953;45.508;-122.806;2024-03-02T01:48:28;98629.34;;;24.46;32.56
50852;BME280;43953;45.508;-122.806;2024-03-02T01:49:00;98628.56;;;24.45;32.51
50852;BME280;43953;45.508;-122.806;2024-03-02T01:49:32;98618.72;;;24.44;32.76
50852;BME280;43953;45.508;-122.806;2024-03-02T01:50:05;98614.00;;;24.45;32.69
50852;BME280;43953;45.508;-122.806;2024-03-02T01:50:37;98618.72;;;24.44;32.75
50852;BME280;43953;45.508;-122.806;2024-03-02T01:51:09;98615.97;;;24.44;32.65
50852;BME280;43953;45.508;-122.806;2024-03-02T01:51:41;98622.63;;;24.43;32.70
50852;BME280;43953;45.508;-122.806;2024-03-02T01:52:13;98615.50;;;24.42;32.79
50852;BME280;43953;45.508;-122.806;2024-03-02T01:52:45;98618.25;;;24.42;32.61
50852;BME280;43953;45.508;-122.806;2024-03-02T01:53:17;98611.16;;;24.41;32.71
50852;BME280;43953;45.508;-122.806;2024-03-02T01:53:49;98611.47;;;24.40;32.72
50852;BME280;43953;45.508;-122.806;2024-03-02T01:54:20;98615.06;;;24.40;32.72
50852;BME280;43953;45.508;-122.806;2024-03-02T01:54:52;98604.06;;;24.40;32.69
50852;BME280;43953;45.508;-122.806;2024-03-02T01:55:24;98610.34;;;24.41;32.81
50852;BME280;43953;45.508;-122.806;2024-03-02T01:55:56;98601.31;;;24.40;32.84
50852;BME280;43953;45.508;-122.806;2024-03-02T01:56:28;98598.91;;;24.39;32.72
50852;BME280;43953;45.508;-122.806;2024-03-02T01:57:00;98599.69;;;24.39;32.70
50852;BME280;43953;45.508;-122.806;2024-03-02T01:57:33;98590.63;;;24.39;32.88
50852;BME280;43953;45.508;-122.806;2024-03-02T01:58:05;98585.94;;;24.39;32.88
50852;BME280;43953;45.508;-122.806;2024-03-02T01:58:38;98584.81;;;24.40;32.89
50852;BME280;43953;45.508;-122.806;2024-03-02T01:59:09;98588.34;;;24.41;33.03
50852;BME280;43953;45.508;-122.806;2024-03-02T01:59:41;98582.16;;;24.44;33.14
50852;BME280;43953;45.508;-122.806;2024-03-02T02:00:14;98583.41;;;24.46;33.03
50852;BME280;43953;45.508;-122.806;2024-03-02T02:00:45;98583.84;;;24.48;32.98
50852;BME280;43953;45.508;-122.806;2024-03-02T02:01:17;98580.38;;;24.51;33.07
50852;BME280;43953;45.508;-122.806;2024-03-02T02:01:49;98587.94;;;24.55;33.02
50852;BME280;43953;45.508;-122.806;2024-03-02T02:02:21;98577.38;;;24.57;32.80
50852;BME280;43953;45.508;-122.806;2024-03-02T02:02:53;98575.88;;;24.59;32.87
50852;BME280;43953;45.508;-122.806;2024-03-02T02:03:25;98575.50;;;24.61;32.81
50852;BME280;43953;45.508;-122.806;2024-03-02T02:03:57;98574.38;;;24.62;33.03
50852;BME280;43953;45.508;-122.806;2024-03-02T02:04:28;98569.28;;;24.64;32.61
50852;BME280;43953;45.508;-122.806;2024-03-02T02:05:00;98568.16;;;24.65;32.82
50852;BME280;43953;45.508;-122.806;2024-03-02T02:05:32;98572.50;;;24.66;32.78
50852;BME280;43953;45.508;-122.806;2024-03-02T02:06:04;98564.63;;;24.64;32.47
50852;BME280;43953;45.508;-122.806;2024-03-02T02:06:36;98558.28;;;24.64;32.62
50852;BME280;43953;45.508;-122.806;2024-03-02T02:07:08;98554.75;;;24.63;32.66
50852;BME280;43953;45.508;-122.806;2024-03-02T02:07:41;98556.69;;;24.63;32.55
50852;BME280;43953;45.508;-122.806;2024-03-02T02:08:14;98555.91;;;24.62;32.68
50852;BME280;43953;45.508;-122.806;2024-03-02T02:08:46;98555.13;;;24.62;32.81
50852;BME280;43953;45.508;-122.806;2024-03-02T02:09:18;98557.06;;;24.61;32.95
50852;BME280;43953;45.508;-122.806;2024-03-02T02:09:50;98554.66;;;24.60;32.73
50852;BME280;43953;45.508;-122.806;2024-03-02T02:10:22;98556.63;;;24.59;32.55
50852;BME280;43953;45.508;-122.806;2024-03-02T02:10:54;98555.81;;;24.59;32.97
50852;BME280;43953;45.508;-122.806;2024-03-02T02:11:25;98565.66;;;24.60;32.84
50852;BME280;43953;45.508;-122.806;2024-03-02T02:11:57;98564.41;;;24.57;32.75
50852;BME280;43953;45.508;-122.806;2024-03-02T02:12:29;98558.13;;;24.57;32.64
50852;BME280;43953;45.508;-122.806;2024-03-02T02:13:01;98557.31;;;24.56;32.79
50852;BME280;43953;45.508;-122.806;2024-03-02T02:13:33;98556.53;;;24.56;32.84
50852;BME280;43953;45.508;-122.806;2024-03-02T02:14:06;98556.53;;;24.56;32.97
50852;BME280;43953;45.508;-122.806;2024-03-02T02:14:38;98558.03;;;24.53;32.83
50852;BME280;43953;45.508;-122.806;2024-03-02T02:15:27;98550.13;;;24.51;32.86
50852;BME280;43953;45.508;-122.806;2024-03-02T02:16:06;98551.75;;;24.52;32.90
50852;BME280;43953;45.508;-122.806;2024-03-02T02:16:38;98549.34;;;24.51;32.88
50852;BME280;43953;45.508;-122.806;2024-03-02T02:17:10;98553.25;;;24.50;32.83
50852;BME280;43953;45.508;-122.806;2024-03-02T02:17:42;98553.25;;;24.50;32.92
50852;BME280;43953;45.508;-122.806;2024-03-02T02:18:14;98553.59;;;24.48;32.97
50852;BME280;43953;45.508;-122.806;2024-03-02T02:18:45;98545.34;;;24.48;32.81
50852;BME280;43953;45.508;-122.806;2024-03-02T02:19:17;98548.44;;;24.47;32.94
50852;BME280;43953;45.508;-122.806;2024-03-02T02:19:49;98542.94;;;24.47;32.86
50852;BME280;43953;45.508;-122.806;2024-03-02T02:20:21;98540.53;;;24.45;32.95
50852;BME280;43953;45.508;-122.806;2024-03-02T02:20:53;98546.03;;;24.45;32.89
50852;BME280;43953;45.508;-122.806;2024-03-02T02:21:24;98541.72;;;24.44;32.81
50852;BME280;43953;45.508;-122.806;2024-03-02T02:21:57;98539.28;;;24.43;32.97
50852;BME280;43953;45.508;-122.806;2024-03-02T02:22:29;98533.00;;;24.42;32.83
50852;BME280;43953;45.508;-122.806;2024-03-02T02:23:04;98534.94;;;24.42;32.97
50852;BME280;43953;45.508;-122.806;2024-03-02T02:23:44;98538.72;;;24.37;32.84
50852;BME280;43953;45.508;-122.806;2024-03-02T02:24:19;98539.63;;;24.41;33.00
50852;BME280;43953;45.508;-122.806;2024-03-02T02:24:51;98540.78;;;24.40;32.98
50852;BME280;43953;45.508;-122.806;2024-03-02T02:25:23;98539.19;;;24.39;33.13
50852;BME280;43953;45.508;-122.806;2024-03-02T02:25:54;98543.88;;;24.39;32.99
50852;BME280;43953;45.508;-122.806;2024-03-02T02:26:26;98540.34;;;24.38;33.00
50852;BME280;43953;45.508;-122.806;2024-03-02T02:26:58;98541.13;;;24.39;33.12
50852;BME280;43953;45.508;-122.806;2024-03-02T02:27:30;98537.59;;;24.38;32.95
50852;BME280;43953;45.508;-122.806;2024-03-02T02:28:02;98538.72;;;24.37;32.95
50852;BME280;43953;45.508;-122.806;2024-03-02T02:28:33;98542.63;;;24.36;32.95
50852;BME280;43953;45.508;-122.806;2024-03-02T02:29:05;98546.19;;;24.37;33.07
50852;BME280;43953;45.508;-122.806;2024-03-02T02:29:37;98553.63;;;24.36;32.98
50852;BME280;43953;45.508;-122.806;2024-03-02T02:30:09;98553.63;;;24.36;33.01
50852;BME280;43953;45.508;-122.806;2024-03-02T02:30:41;98538.56;;;24.30;33.06
50852;BME280;43953;45.508;-122.806;2024-03-02T02:31:14;98534.38;;;24.36;33.05
50852;BME280;43953;45.508;-122.806;2024-03-02T02:31:46;98526.13;;;24.36;33.00
50852;BME280;43953;45.508;-122.806;2024-03-02T02:32:17;98524.56;;;24.35;32.98
50852;BME280;43953;45.508;-122.806;2024-03-02T02:32:49;98526.13;;;24.36;32.91
50852;BME280;43953;45.508;-122.806;2024-03-02T02:33:21;98534.38;;;24.36;32.98
50852;BME280;43953;45.508;-122.806;2024-03-02T02:33:53;98524.19;;;24.37;33.12
50852;BME280;43953;45.508;-122.806;2024-03-02T02:34:24;98522.22;;;24.37;33.22
50852;BME280;43953;45.508;-122.806;2024-03-02T02:34:56;98510.09;;;24.38;33.30
50852;BME280;43953;45.508;-122.806;2024-03-02T02:35:28;98523.94;;;24.42;33.38
50852;BME280;43953;45.508;-122.806;2024-03-02T02:36:00;98517.28;;;24.43;33.21
50852;BME280;43953;45.508;-122.806;2024-03-02T02:36:33;98514.66;;;24.46;33.49
50852;BME280;43953;45.508;-122.806;2024-03-02T02:37:06;98512.78;;;24.50;33.66
50852;BME280;43953;45.508;-122.806;2024-03-02T02:37:38;98506.56;;;24.54;33.42
50852;BME280;43953;45.508;-122.806;2024-03-02T02:38:10;98505.84;;;24.57;33.54
50852;BME280;43953;45.508;-122.806;2024-03-02T02:38:44;98507.09;;;24.59;33.48
50852;BME280;43953;45.508;-122.806;2024-03-02T02:39:22;98505.59;;;24.62;33.33
50852;BME280;43953;45.508;-122.806;2024-03-02T02:39:54;98495.00;;;24.64;33.15
50852;BME280;43953;45.508;-122.806;2024-03-02T02:40:26;98500.16;;;24.65;33.25
50852;BME280;43953;45.508;-122.806;2024-03-02T02:40:58;98498.22;;;24.66;32.73
50852;BME280;43953;45.508;-122.806;2024-03-02T02:41:30;98502.13;;;24.65;33.14
50852;BME280;43953;45.508;-122.806;2024-03-02T02:42:02;98499.38;;;24.65;32.92
50852;BME280;43953;45.508;-122.806;2024-03-02T02:42:34;98496.97;;;24.63;32.79
50852;BME280;43953;45.508;-122.806;2024-03-02T02:43:06;98509.13;;;24.62;33.12
50852;BME280;43953;45.508;-122.806;2024-03-02T02:43:38;98501.69;;;24.63;33.05
50852;BME280;43953;45.508;-122.806;2024-03-02T02:44:11;98503.97;;;24.61;32.88
50852;BME280;43953;45.508;-122.806;2024-03-02T02:44:44;98503.19;;;24.60;32.95
50852;BME280;43953;45.508;-122.806;2024-03-02T02:45:16;98507.09;;;24.59;33.04
50852;BME280;43953;45.508;-122.806;2024-03-02T02:45:47;98505.50;;;24.58;32.88
50852;BME280;43953;45.508;-122.806;2024-03-02T02:46:19;98508.59;;;24.57;33.07
50852;BME280;43953;45.508;-122.806;2024-03-02T02:46:51;98502.66;;;24.55;33.04
50852;BME280;43953;45.508;-122.806;2024-03-02T02:47:23;98488.03;;;24.50;33.04
50852;BME280;43953;45.508;-122.806;2024-03-02T02:47:54;98492.00;;;24.53;33.07